Bayside, New York
Current Conditions -  °F | °C
As of 10:51 AM on Saturday 22 Nov 2014 (Local Time) from KLGA Reporting Station
Few Clouds Few Clouds  
Wind Chill: -4°   Ceiling: Unl
Heat Index:   Visibility: 10mi
Dew Point: -12°   Wind: 18mph
Humidity: 37%   Direction: 240°WSW
Pressure: 30.43"   Gusts: 23mph
Location:  40.77°N, 73.78°W
Report Text: KLGA 221551Z 24016G20KT 10SM FEW250 02/M12 A3043 RMK AO2 SLP303 T00171117
Loading
Personal Weather Stations






























Interactive Weather Map New forecast layout! Learn more

10-Day Weather Forecast

Advertisements
Track Severe Weather on mobile